Terminal Aerodrome Forecast
Issued by NWS

Home | Current Version | Previous Version | Text Only | Print | Product List | Glossary On
Versions: 1 2 3 4 5 6 7 8 9 10 11 12 13 14 15 16 17 18 19 20 21
000
FTUS43 KGRR 280903 AAA
TAFJXN
TAF AMD
KJXN 280903Z 2809/2906 VRB03KT P6SM VCFG SKC
      TEMPO 2809/2812 1SM BR
     FM281300 13005KT P6SM SCT250=

USA.gov is the U.S. government's official web portal to all federal, state and local government web resources and services.